Terminal Aerodrome Forecast
Issued by NWS Green Bay, WI

Home | Current Version | Previous Version | Text Only | Print | Product List | Glossary Off
Versions: 1 2 3 4 5 6 7 8 9 10 11 12 13 14 15 16 17 18 19 20 21 22 23 24 25 26 27 28 29 30 31 32 33 34 35 36 37 38 39 40 41 42 43 44 45 46 47 48

000
FTUS43 KGRB 210006 AAA
TAFGRB
TAF AMD
KGRB 210006Z 2100/2124 16008KT P6SM SCT050 BKN080
      TEMPO 2100/2104 25018G29KT 2SM +TSRA BKN025CB
     FM210600 35005KT 4SM BR BKN025 BKN040
     FM210900 04007KT 3SM BR BKN008 BKN012
     FM211500 07007KT P6SM SCT015 BKN025
     FM212000 10007KT P6SM BKN035=

USA.gov is the U.S. government's official web portal to all federal, state and local government web resources and services.